Terminal Aerodrome Forecast
Issued by NWS

Home | Current Version | Previous Version | Text Only | Print | Product List | Glossary On
Versions: 1 2 3 4 5 6 7 8 9 10 11 12 13 14 15 16 17 18 19 20 21 22 23 24
000
FTUS41 KBTV 301700
TAFPBG
TAF
KPBG 301727Z 3018/3118 16013G21KT P6SM BKN180
     FM310000 16010KT P6SM BKN180
     FM310600 16007KT P6SM BKN100
     FM310800 18007KT P6SM VCSH OVC050
     FM311300 20009KT 5SM -SHRA BR OVC030=

USA.gov is the U.S. government's official web portal to all federal, state and local government web resources and services.